Time;durP1;ratioP1;P1;durP2;ratioP2;P2;SDS_P1;SDS_P2;PMS_P1;PMS_P2;Temp;Humidity;BMP_temperature;BMP_pressure;BME280_temperature;BME280_humidity;BME280_pressure;Samples;Min_cycle;Max_cycle;Signal;HPM_P1;HPM_P2
2023/05/01 00:01:39;;;;;;;6.90;4.75;;;;;;;7.06;100.00;97206.59;5021672;28;20046;-57
2023/05/01 00:04:05;;;;;;;8.52;5.13;;;;;;;6.92;100.00;97208.69;5021636;28;20068;-57
2023/05/01 00:06:32;;;;;;;7.75;5.07;;;;;;;6.86;100.00;97202.38;5021233;28;20054;-57
2023/05/01 00:08:59;;;;;;;7.00;4.93;;;;;;;6.86;100.00;97199.69;5016411;28;20045;-57
2023/05/01 00:11:26;;;;;;;8.50;5.18;;;;;;;6.93;100.00;97200.38;5027110;28;20523;-57
2023/05/01 00:13:53;;;;;;;7.00;4.72;;;;;;;6.99;100.00;97198.63;5027690;28;20075;-58
2023/05/01 00:16:19;;;;;;;7.57;4.78;;;;;;;7.09;100.00;97189.97;5030209;28;20056;-56
2023/05/01 00:18:46;;;;;;;7.90;5.50;;;;;;;6.85;100.00;97190.78;5028403;28;20142;-58
2023/05/01 00:21:12;;;;;;;8.20;5.05;;;;;;;6.69;100.00;97189.59;5020947;28;20045;-55
2023/05/01 00:23:39;;;;;;;7.72;5.20;;;;;;;6.66;100.00;97179.28;5023068;28;20041;-55
2023/05/01 00:26:06;;;;;;;8.75;5.72;;;;;;;6.66;100.00;97178.47;5025048;28;20076;-56
2023/05/01 00:28:32;;;;;;;7.80;4.88;;;;;;;6.71;100.00;97176.72;5025081;28;20056;-54
2023/05/01 00:30:59;;;;;;;7.65;5.18;;;;;;;6.78;100.00;97186.56;5025856;28;20549;-56
2023/05/01 00:33:25;;;;;;;10.43;5.07;;;;;;;6.80;100.00;97179.88;5020750;28;20691;-55
2023/05/01 00:35:52;;;;;;;9.48;5.68;;;;;;;6.73;100.00;97173.78;5023966;28;20037;-57
2023/05/01 00:38:18;;;;;;;7.63;4.93;;;;;;;6.76;100.00;97166.09;5019624;28;20053;-57
2023/05/01 00:40:45;;;;;;;8.32;5.13;;;;;;;6.76;100.00;97162.56;5017301;28;20053;-57
2023/05/01 00:43:12;;;;;;;7.72;5.40;;;;;;;6.74;100.00;97167.34;5027633;28;20037;-57
2023/05/01 00:45:43;;;;;;;9.73;6.47;;;;;;;6.69;100.00;97167.22;5021032;28;20045;-56
2023/05/01 00:48:10;;;;;;;9.15;6.05;;;;;;;6.67;100.00;97166.66;5016392;28;20525;-54
2023/05/01 00:50:37;;;;;;;11.43;5.60;;;;;;;6.75;100.00;97164.44;5021453;28;20045;-57
2023/05/01 00:53:04;;;;;;;8.13;5.35;;;;;;;6.70;100.00;97163.47;5026390;28;20354;-56
2023/05/01 00:55:32;;;;;;;8.95;6.68;;;;;;;6.73;100.00;97158.47;5021860;28;20042;-57
2023/05/01 00:58:00;;;;;;;8.68;6.38;;;;;;;6.76;100.00;97154.50;5015878;28;20076;-57
2023/05/01 01:00:28;;;;;;;9.38;5.57;;;;;;;6.84;100.00;97158.72;5025497;28;20049;-54
2023/05/01 01:02:54;;;;;;;10.15;6.40;;;;;;;6.78;100.00;97147.00;5024064;28;20054;-57
2023/05/01 01:05:24;;;;;;;9.15;5.55;;;;;;;6.73;100.00;97144.19;5021323;28;20045;-57
2023/05/01 01:08:09;;;;;;;10.32;6.07;;;;;;;6.76;100.00;97146.41;5023475;28;20056;-56
2023/05/01 01:10:51;;;;;;;10.93;5.85;;;;;;;6.86;100.00;97143.16;5020030;28;20042;-57
2023/05/01 01:13:41;;;;;;;11.88;6.25;;;;;;;6.97;100.00;97136.13;5026288;28;20044;-57
2023/05/01 01:16:15;;;;;;;8.43;5.78;;;;;;;7.01;100.00;97126.53;5020812;28;20041;-55
2023/05/01 01:19:13;;;;;;;9.82;5.80;;;;;;;6.95;100.00;97130.97;5022601;28;20053;-56
2023/05/01 01:21:43;;;;;;;9.05;5.93;;;;;;;6.97;100.00;97123.47;5026795;28;20531;-53
2023/05/01 01:24:59;;;;;;;10.18;6.65;;;;;;;6.97;100.00;97120.00;5028869;28;20052;-55
2023/05/01 01:27:48;;;;;;;12.70;7.07;;;;;;;7.00;100.00;97116.81;5016120;28;20041;-55
2023/05/01 01:30:33;;;;;;;12.27;7.07;;;;;;;6.96;100.00;97115.66;5050470;28;20132;-53
2023/05/01 01:33:09;;;;;;;11.48;7.57;;;;;;;6.95;100.00;97120.22;5013883;28;20052;-54
2023/05/01 01:35:37;;;;;;;11.95;8.60;;;;;;;7.00;100.00;97116.81;5022245;28;20040;-56
2023/05/01 01:38:14;;;;;;;13.57;8.88;;;;;;;6.99;100.00;97117.88;5016326;28;20422;-56
2023/05/01 01:41:06;;;;;;;14.68;8.77;;;;;;;7.03;100.00;97109.09;5020736;28;20128;-56
2023/05/01 01:43:43;;;;;;;13.32;8.48;;;;;;;6.99;100.00;97113.31;5019028;28;20073;-56
2023/05/01 01:46:10;;;;;;;11.23;8.07;;;;;;;6.98;100.00;97111.69;5009062;28;20042;-56
2023/05/01 01:48:41;;;;;;;10.70;7.38;;;;;;;7.03;100.00;97116.34;5013401;28;20049;-54
2023/05/01 01:51:13;;;;;;;11.07;6.80;;;;;;;7.09;100.00;97104.66;5021693;28;20039;-57
2023/05/01 01:53:40;;;;;;;;;;;;;;;7.16;100.00;97110.69;5022919;28;20315;-57
2023/05/01 01:56:08;;;;;;;12.25;6.85;;;;;;;7.24;100.00;97114.94;5023096;28;20391;-57
2023/05/01 01:58:37;;;;;;;11.07;7.15;;;;;;;7.27;100.00;97108.25;5018901;28;20119;-56
2023/05/01 02:01:05;;;;;;;11.50;7.20;;;;;;;7.26;100.00;97106.63;5022536;28;20511;-56
2023/05/01 02:03:34;;;;;;;10.18;6.32;;;;;;;7.25;100.00;97102.25;5022707;28;20037;-57
2023/05/01 02:06:03;;;;;;;9.88;6.70;;;;;;;7.37;100.00;97110.34;5021046;28;20102;-55
2023/05/01 02:08:30;;;;;;;12.20;7.20;;;;;;;7.36;100.00;97111.38;5022093;28;20052;-57
2023/05/01 02:10:58;;;;;;;12.18;7.20;;;;;;;7.46;100.00;97106.22;5012536;28;20482;-55
2023/05/01 02:13:30;;;;;;;10.05;6.95;;;;;;;7.55;100.00;97102.09;5020665;28;20049;-56
2023/05/01 02:16:02;;;;;;;12.25;7.40;;;;;;;7.48;100.00;97098.69;5021627;28;20033;-56
2023/05/01 02:18:30;;;;;;;10.43;7.80;;;;;;;7.47;100.00;97090.84;5017302;28;20048;-55
2023/05/01 02:20:58;;;;;;;9.93;6.63;;;;;;;7.47;100.00;97096.25;5025093;28;20091;-56
2023/05/01 02:23:27;;;;;;;10.75;7.82;;;;;;;7.25;100.00;97086.09;5015322;28;20052;-56
2023/05/01 02:25:56;;;;;;;11.18;7.35;;;;;;;7.11;100.00;97089.06;5021457;28;20049;-53
2023/05/01 02:28:25;;;;;;;13.20;7.00;;;;;;;7.20;100.00;97097.59;5025811;28;20033;-54
2023/05/01 02:30:52;;;;;;;10.68;7.05;;;;;;;7.29;100.00;97098.03;5021519;28;20068;-55
2023/05/01 02:33:19;;;;;;;9.32;6.88;;;;;;;7.37;100.00;97089.59;5017278;28;20053;-56
2023/05/01 02:35:46;;;;;;;11.07;7.35;;;;;;;7.42;100.00;97091.59;5016911;28;20107;-57
2023/05/01 02:38:15;;;;;;;12.40;8.38;;;;;;;7.44;100.00;97083.28;5009935;28;20525;-57
2023/05/01 02:40:56;;;;;;;10.88;6.97;;;;;;;7.46;100.00;97084.66;5017369;28;20560;-57
2023/05/01 02:43:25;;;;;;;9.70;6.20;;;;;;;7.38;100.00;97080.44;5024694;28;20045;-56
2023/05/01 02:45:53;;;;;;;10.68;6.82;;;;;;;7.25;100.00;97083.41;5020571;28;20057;-55
2023/05/01 02:48:26;;;;;;;10.23;7.20;;;;;;;6.97;100.00;97075.03;5010561;28;20052;-55
2023/05/01 02:50:55;;;;;;;12.05;6.70;;;;;;;6.97;100.00;97074.22;5023217;28;20038;-55
2023/05/01 02:53:21;;;;;;;10.85;6.88;;;;;;;6.97;100.00;97071.53;5030318;28;20622;-55
2023/05/01 02:55:52;;;;;;;10.27;6.53;;;;;;;7.03;100.00;97073.28;5016530;28;20552;-56
2023/05/01 02:58:19;;;;;;;11.82;7.43;;;;;;;7.05;100.00;97068.47;5038015;28;20064;-56
2023/05/01 03:00:48;;;;;;;13.40;7.68;;;;;;;7.20;100.00;97067.97;5017334;28;20524;-54
2023/05/01 03:03:16;;;;;;;10.00;7.13;;;;;;;7.32;100.00;97067.13;5021037;28;20512;-56
2023/05/01 03:05:42;;;;;;;10.02;6.97;;;;;;;7.37;100.00;97070.75;5017489;28;20615;-56
2023/05/01 03:08:10;;;;;;;10.30;6.70;;;;;;;7.35;100.00;97063.97;5019889;28;20057;-56
2023/05/01 03:10:39;;;;;;;8.55;6.22;;;;;;;7.45;100.00;97063.34;5023346;28;20111;-57
2023/05/01 03:13:06;;;;;;;10.13;6.60;;;;;;;7.42;100.00;97068.13;5020290;28;20054;-57
2023/05/01 03:15:32;;;;;;;10.07;6.28;;;;;;;7.36;100.00;97063.72;5022877;28;20060;-57
2023/05/01 03:17:59;;;;;;;9.68;6.82;;;;;;;7.30;100.00;97062.00;5029165;28;20539;-57
2023/05/01 03:20:25;;;;;;;10.00;6.85;;;;;;;7.29;100.00;97053.09;5019635;28;20591;-57
2023/05/01 03:22:53;;;;;;;9.93;6.38;;;;;;;7.28;100.00;97058.72;5020998;28;20056;-57
2023/05/01 03:25:19;;;;;;;8.63;6.30;;;;;;;7.25;100.00;97054.63;5016067;28;20509;-57
2023/05/01 03:27:46;;;;;;;9.25;6.25;;;;;;;7.25;100.00;97056.47;5019012;28;20472;-55
2023/05/01 03:30:13;;;;;;;9.43;6.18;;;;;;;7.31;100.00;97060.94;5017440;28;20045;-57
2023/05/01 03:32:40;;;;;;;9.35;6.18;;;;;;;7.39;100.00;97052.47;5013042;28;20046;-57
2023/05/01 03:35:15;;;;;;;10.35;6.20;;;;;;;7.40;100.00;97055.97;5020170;28;20539;-57
2023/05/01 03:37:41;;;;;;;8.77;6.30;;;;;;;7.43;100.00;97052.81;5018796;28;20088;-57
2023/05/01 03:40:09;;;;;;;9.15;6.55;;;;;;;7.40;100.00;97051.41;5016390;28;20042;-56
2023/05/01 03:42:59;;;;;;;9.20;6.57;;;;;;;7.42;100.00;97051.97;5010716;28;20061;-57
2023/05/01 03:45:26;;;;;;;10.50;6.03;;;;;;;7.31;100.00;97047.47;5011346;28;20572;-57
2023/05/01 03:47:52;;;;;;;7.55;5.70;;;;;;;7.35;100.00;97048.63;5022271;28;20040;-56
2023/05/01 03:50:19;;;;;;;10.02;6.65;;;;;;;7.29;100.00;97049.56;5024161;28;20106;-57
2023/05/01 03:52:48;;;;;;;8.98;5.97;;;;;;;7.21;100.00;97045.38;5027423;28;20532;-57
2023/05/01 03:55:15;;;;;;;8.45;5.90;;;;;;;7.30;100.00;97045.84;5013356;28;20160;-56
2023/05/01 03:57:46;;;;;;;10.48;6.07;;;;;;;7.29;100.00;97047.69;5023884;28;20045;-54
2023/05/01 04:00:13;;;;;;;8.35;6.05;;;;;;;7.24;100.00;97039.53;5022099;28;20045;-52
2023/05/01 04:02:42;;;;;;;9.52;6.78;;;;;;;7.27;100.00;97047.09;5018864;28;20172;-56
2023/05/01 04:05:13;;;;;;;11.00;6.30;;;;;;;7.21;100.00;97041.84;5029240;28;20045;-55
2023/05/01 04:07:45;;;;;;;;;;;;;;;7.12;100.00;97036.03;5023487;28;20041;-54
2023/05/01 04:10:12;;;;;;;8.45;5.70;;;;;;;7.01;100.00;97040.41;5026261;28;19921;-56
2023/05/01 04:12:45;;;;;;;11.02;6.13;;;;;;;7.03;100.00;97035.56;5023540;28;20099;-57
2023/05/01 04:15:12;;;;;;;8.77;6.00;;;;;;;7.19;100.00;97042.09;5019232;28;20492;-55
2023/05/01 04:17:42;;;;;;;11.65;6.88;;;;;;;7.21;100.00;97037.31;5020390;28;20054;-55
2023/05/01 04:20:09;;;;;;;13.30;6.22;;;;;;;7.19;100.00;97038.59;5024717;28;20192;-55
2023/05/01 04:22:36;;;;;;;9.05;5.82;;;;;;;7.12;100.00;97034.16;5029596;28;20037;-56
2023/05/01 04:25:03;;;;;;;9.75;6.57;;;;;;;7.10;100.00;97033.59;5015554;28;20748;-57
2023/05/01 04:27:30;;;;;;;10.23;5.55;;;;;;;7.12;100.00;97034.16;5021917;28;20509;-55
2023/05/01 04:29:57;;;;;;;8.98;6.13;;;;;;;7.16;100.00;97035.31;5042388;28;20164;-55
2023/05/01 04:32:24;;;;;;;9.18;6.13;;;;;;;7.15;100.00;97035.56;5015482;28;20046;-55
2023/05/01 04:34:51;;;;;;;10.32;6.20;;;;;;;7.18;100.00;97034.28;5021454;28;20083;-56
2023/05/01 04:37:17;;;;;;;9.48;6.22;;;;;;;7.21;100.00;97033.78;5013213;28;20042;-56
2023/05/01 04:39:44;;;;;;;10.23;6.22;;;;;;;7.11;100.00;97039.78;5020294;28;20622;-54
2023/05/01 04:42:10;;;;;;;10.25;6.57;;;;;;;7.23;100.00;97039.75;5020823;28;20049;-54
2023/05/01 04:44:38;;;;;;;11.25;7.07;;;;;;;7.32;100.00;97042.88;5020963;28;20425;-53
2023/05/01 04:47:05;;;;;;;9.80;6.65;;;;;;;7.44;100.00;97042.84;5017238;28;20625;-57
2023/05/01 04:49:31;;;;;;;11.45;7.63;;;;;;;7.44;100.00;97042.84;5015875;28;20752;-56
2023/05/01 04:51:58;;;;;;;9.80;7.15;;;;;;;7.51;100.00;97038.13;5017419;28;20057;-57
2023/05/01 04:54:32;;;;;;;9.23;7.03;;;;;;;7.58;100.00;97044.19;5022119;28;20045;-56
2023/05/01 04:56:58;;;;;;;10.00;6.72;;;;;;;7.62;100.00;97037.28;5020545;28;20041;-55
2023/05/01 04:59:25;;;;;;;10.68;6.97;;;;;;;7.66;100.00;97041.13;5021288;28;20057;-56
2023/05/01 05:01:53;;;;;;;8.45;6.10;;;;;;;7.60;100.00;97044.78;5019044;28;20714;-56
2023/05/01 05:04:21;;;;;;;9.80;6.78;;;;;;;7.55;100.00;97048.19;5021144;28;20084;-54
2023/05/01 05:06:47;;;;;;;9.05;6.60;;;;;;;7.63;100.00;97048.88;5015949;28;20037;-55
2023/05/01 05:09:20;;;;;;;9.45;6.68;;;;;;;7.73;100.00;97040.97;5020440;28;20163;-56
2023/05/01 05:11:47;;;;;;;9.77;6.70;;;;;;;7.80;100.00;97043.50;5023484;28;20556;-56
2023/05/01 05:14:20;;;;;;;8.32;6.13;;;;;;;7.79;100.00;97042.72;5012144;28;20057;-56
2023/05/01 05:16:46;;;;;;;9.05;6.53;;;;;;;7.79;100.00;97047.28;5024478;28;20041;-57
2023/05/01 05:19:14;;;;;;;9.68;6.47;;;;;;;7.81;100.00;97043.28;5018620;28;20056;-56
2023/05/01 05:21:41;;;;;;;9.82;6.75;;;;;;;7.89;100.00;97044.75;5031477;28;20052;-57
2023/05/01 05:24:07;;;;;;;9.15;6.53;;;;;;;7.91;100.00;97045.34;5021314;28;20037;-57
2023/05/01 05:26:34;;;;;;;9.20;6.55;;;;;;;8.00;100.00;97040.34;5011073;28;20045;-57
2023/05/01 05:29:02;;;;;;;10.65;7.45;;;;;;;8.10;100.00;97050.50;5018642;28;20525;-58
2023/05/01 05:31:28;;;;;;;11.30;6.47;;;;;;;8.13;100.00;97044.63;5019638;28;20654;-57
2023/05/01 05:33:55;;;;;;;8.80;6.70;;;;;;;8.19;100.00;97046.34;5020498;28;20057;-57
2023/05/01 05:36:23;;;;;;;9.52;6.15;;;;;;;8.15;100.00;97047.09;5017565;28;20041;-54
2023/05/01 05:38:50;;;;;;;11.95;7.03;;;;;;;8.09;100.00;97042.66;5017276;28;20416;-55
2023/05/01 05:41:17;;;;;;;9.50;6.95;;;;;;;8.19;100.00;97045.53;5017931;28;20073;-57
2023/05/01 05:43:46;;;;;;;8.48;6.47;;;;;;;8.20;100.00;97044.47;5020445;28;20056;-58
2023/05/01 05:46:12;;;;;;;10.07;7.13;;;;;;;8.27;100.00;97041.59;5020458;28;20132;-58
2023/05/01 05:48:40;;;;;;;9.23;6.63;;;;;;;8.34;100.00;97042.28;5020334;28;20484;-58
2023/05/01 05:51:06;;;;;;;11.10;6.90;;;;;;;8.40;100.00;97049.38;5017983;28;20044;-58
2023/05/01 05:53:33;;;;;;;11.25;7.53;;;;;;;8.56;100.00;97041.56;5030056;28;20148;-57
2023/05/01 05:56:00;;;;;;;11.30;6.85;;;;;;;8.57;100.00;97035.06;5020508;28;20697;-58
2023/05/01 05:58:29;;;;;;;10.00;7.07;;;;;;;8.65;100.00;97039.22;5018618;28;20058;-58
2023/05/01 06:00:56;;;;;;;10.68;7.38;;;;;;;8.64;100.00;97043.84;5017223;28;20061;-58
2023/05/01 06:03:22;;;;;;;10.60;7.10;;;;;;;8.69;100.00;97046.59;5026959;28;20064;-58
2023/05/01 06:05:53;;;;;;;9.75;7.25;;;;;;;8.79;100.00;97045.94;5018238;28;20077;-58
2023/05/01 06:08:21;;;;;;;10.50;7.88;;;;;;;8.84;100.00;97047.88;5024696;28;20049;-58
2023/05/01 06:10:47;;;;;;;10.40;7.18;;;;;;;9.08;100.00;97043.09;5012057;28;20773;-58
2023/05/01 06:13:14;;;;;;;10.60;8.10;;;;;;;9.06;100.00;97041.69;5015718;28;20047;-59
2023/05/01 06:15:44;;;;;;;11.80;6.95;;;;;;;9.16;100.00;97041.81;5016269;28;20048;-58
2023/05/01 06:18:11;;;;;;;11.65;7.55;;;;;;;9.23;100.00;97039.75;5016263;28;20044;-59
2023/05/01 06:20:38;;;;;;;11.65;7.18;;;;;;;9.24;100.00;97048.66;5009804;28;20069;-58
2023/05/01 06:23:07;;;;;;;11.80;7.53;;;;;;;9.15;100.00;97045.59;5016784;28;20103;-58
2023/05/01 06:25:47;;;;;;;8.98;6.55;;;;;;;9.37;100.00;97047.47;5020153;28;20539;-59
2023/05/01 06:28:14;;;;;;;12.70;7.15;;;;;;;9.47;97.68;97042.19;5018948;28;20033;-57
2023/05/01 06:30:41;;;;;;;9.95;7.28;;;;;;;9.67;98.42;97034.56;5018856;28;20049;-56
2023/05/01 06:33:09;;;;;;;9.82;6.63;;;;;;;9.81;99.42;97041.22;5018957;28;20149;-57
2023/05/01 06:35:40;;;;;;;9.85;6.97;;;;;;;9.79;100.00;97050.63;5018909;28;20057;-58
2023/05/01 06:38:07;;;;;;;10.77;6.93;;;;;;;9.91;99.06;97047.78;5011620;28;20049;-57
2023/05/01 06:40:34;;;;;;;8.95;6.22;;;;;;;9.99;97.12;97042.72;5022748;28;20536;-57
2023/05/01 06:43:04;;;;;;;8.48;6.15;;;;;;;10.07;96.41;97052.25;5012845;28;20041;-57
2023/05/01 06:45:31;;;;;;;11.63;6.88;;;;;;;10.17;95.51;97050.72;5017720;28;20548;-58
2023/05/01 06:47:57;;;;;;;11.73;7.65;;;;;;;10.26;97.21;97050.00;5011239;28;20033;-57
2023/05/01 06:50:24;;;;;;;9.65;6.03;;;;;;;10.23;94.50;97050.50;5020952;28;20045;-58
2023/05/01 06:52:50;;;;;;;9.98;6.18;;;;;;;10.28;94.42;97058.66;5017183;28;20134;-56
2023/05/01 06:55:17;;;;;;;11.50;5.97;;;;;;;10.37;92.74;97060.91;5021210;28;20037;-55
2023/05/01 06:57:44;;;;;;;8.50;6.40;;;;;;;10.36;92.30;97060.06;5022576;28;20044;-58
2023/05/01 07:00:11;;;;;;;9.25;6.15;;;;;;;10.28;94.63;97058.66;5009167;28;20045;-59
2023/05/01 07:02:39;;;;;;;9.13;6.15;;;;;;;10.42;94.08;97066.34;5014257;28;20049;-58
2023/05/01 07:05:06;;;;;;;7.70;5.88;;;;;;;10.62;93.59;97067.63;5014259;28;20575;-59
2023/05/01 07:07:32;;;;;;;9.05;6.28;;;;;;;10.63;92.15;97066.53;5010583;28;20069;-59
2023/05/01 07:09:59;;;;;;;8.65;6.32;;;;;;;10.75;94.36;97064.44;5011559;28;20170;-58
2023/05/01 07:12:26;;;;;;;7.90;5.80;;;;;;;10.56;91.53;97068.63;5013154;28;20064;-57
2023/05/01 07:14:52;;;;;;;8.68;5.82;;;;;;;10.73;93.19;97057.66;5013911;28;20065;-57
2023/05/01 07:17:19;;;;;;;7.57;5.75;;;;;;;10.70;94.89;97052.75;5019139;28;20045;-59
2023/05/01 07:19:45;;;;;;;8.93;5.80;;;;;;;10.77;93.25;97062.28;5011673;28;20045;-57
2023/05/01 07:22:12;;;;;;;8.20;5.90;;;;;;;10.83;94.71;97054.22;5014844;28;20120;-58
2023/05/01 07:24:38;;;;;;;8.07;6.18;;;;;;;10.66;92.57;97061.41;5013993;28;20811;-57
2023/05/01 07:27:05;;;;;;;7.70;5.82;;;;;;;10.79;95.93;97054.72;5017565;28;20461;-54
2023/05/01 07:29:32;;;;;;;6.57;5.07;;;;;;;10.91;91.39;97061.84;5004413;28;20119;-58
2023/05/01 07:32:00;;;;;;;8.73;5.47;;;;;;;10.63;90.56;97059.25;5022408;28;20667;-57
2023/05/01 07:34:26;;;;;;;11.25;5.85;;;;;;;10.85;90.82;97054.75;5016908;28;20444;-56
2023/05/01 07:36:53;;;;;;;8.23;5.60;;;;;;;11.15;90.59;97056.84;5021225;28;20037;-58
2023/05/01 07:39:20;;;;;;;9.85;5.47;;;;;;;11.28;89.34;97055.53;5022600;28;21206;-57
2023/05/01 07:41:46;;;;;;;8.32;5.47;;;;;;;11.56;84.37;97048.06;5017248;28;20532;-57
2023/05/01 07:44:13;;;;;;;7.75;5.13;;;;;;;11.83;83.97;97049.72;5015637;28;20118;-58
2023/05/01 07:46:40;;;;;;;7.53;5.63;;;;;;;12.00;87.00;97045.16;5022931;28;20495;-58
2023/05/01 07:49:07;;;;;;;6.70;4.70;;;;;;;11.94;83.14;97045.16;5018702;28;20040;-58
2023/05/01 07:51:33;;;;;;;7.65;5.50;;;;;;;11.41;90.22;97045.28;5026869;28;20044;-58
2023/05/01 07:54:03;;;;;;;8.27;4.88;;;;;;;11.52;86.42;97040.69;5026041;28;20041;-58
2023/05/01 07:56:30;;;;;;;8.23;4.82;;;;;;;11.77;84.30;97039.97;5012985;28;20053;-56
2023/05/01 07:58:56;;;;;;;6.82;4.82;;;;;;;11.85;85.96;97035.91;5023694;28;20045;-58
2023/05/01 08:01:23;;;;;;;7.88;4.45;;;;;;;12.19;79.60;97043.56;5016211;28;20060;-59
2023/05/01 08:03:49;;;;;;;6.60;4.85;;;;;;;11.83;86.30;97035.34;5020377;28;20046;-58
2023/05/01 08:06:16;;;;;;;6.80;4.63;;;;;;;12.06;83.83;97039.47;5019408;28;20065;-60
2023/05/01 08:08:43;;;;;;;8.30;5.30;;;;;;;12.22;87.38;97036.78;5020530;28;20227;-56
2023/05/01 08:11:11;;;;;;;7.28;5.20;;;;;;;12.10;84.95;97037.84;5018332;28;20042;-58
2023/05/01 08:13:37;;;;;;;7.68;5.43;;;;;;;12.11;85.59;97044.13;5013176;28;20038;-58
2023/05/01 08:16:04;;;;;;;8.57;5.10;;;;;;;11.98;85.56;97050.88;5015595;28;20042;-56
2023/05/01 08:18:30;;;;;;;7.40;5.18;;;;;;;12.06;87.41;97042.19;5014049;28;20042;-58
2023/05/01 08:20:57;;;;;;;7.38;4.65;;;;;;;12.31;85.82;97037.06;5010886;28;20045;-57
2023/05/01 08:23:24;;;;;;;7.60;5.13;;;;;;;12.49;83.11;97047.38;5014363;28;20133;-58
2023/05/01 08:25:51;;;;;;;7.40;4.80;;;;;;;12.62;80.14;97047.91;5020913;28;20049;-59
2023/05/01 08:28:21;;;;;;;7.53;4.43;;;;;;;13.01;79.73;97035.59;5017674;28;20480;-59
2023/05/01 08:30:50;;;;;;;7.22;4.63;;;;;;;13.14;79.92;97037.75;5017612;28;20042;-57
2023/05/01 08:33:18;;;;;;;7.40;4.68;;;;;;;13.11;78.32;97034.75;5021756;28;20069;-58
2023/05/01 08:35:44;;;;;;;6.25;4.53;;;;;;;13.31;75.93;97030.34;5017384;28;20069;-58
2023/05/01 08:38:11;;;;;;;7.55;4.57;;;;;;;13.58;74.92;97031.88;5023937;28;20104;-59
2023/05/01 08:40:39;;;;;;;8.77;4.60;;;;;;;13.53;77.92;97030.81;5032291;28;20585;-59
2023/05/01 08:43:06;;;;;;;6.93;4.38;;;;;;;13.71;74.96;97025.03;5021126;28;20037;-59
2023/05/01 08:45:36;;;;;;;6.72;4.63;;;;;;;13.88;75.40;97032.81;5026263;28;20046;-59
2023/05/01 08:48:06;;;;;;;6.75;4.45;;;;;;;14.09;73.48;97030.78;5027813;28;20456;-59
2023/05/01 08:50:35;;;;;;;6.25;4.50;;;;;;;14.30;72.50;97031.41;5017980;28;20036;-58
2023/05/01 08:53:03;;;;;;;7.13;4.60;;;;;;;14.35;72.39;97029.75;5029999;28;20053;-59
2023/05/01 08:55:31;;;;;;;5.63;4.10;;;;;;;14.57;71.72;97029.28;5017677;28;20045;-60
2023/05/01 08:57:58;;;;;;;8.88;4.70;;;;;;;14.33;71.84;97030.03;5017960;28;20563;-59
2023/05/01 09:00:26;;;;;;;7.50;4.60;;;;;;;14.37;72.82;97027.56;5017309;28;20041;-59
2023/05/01 09:02:54;;;;;;;6.43;4.25;;;;;;;14.41;72.05;97034.88;5023284;28;20041;-59
2023/05/01 09:05:20;;;;;;;7.47;4.40;;;;;;;14.31;69.69;97030.31;5014606;28;21296;-58
2023/05/01 09:07:47;;;;;;;5.93;4.15;;;;;;;13.92;67.33;97033.88;5010525;28;20038;-59
2023/05/01 09:10:19;;;;;;;6.53;3.95;;;;;;;14.07;67.29;97029.44;5020702;28;20057;-59
2023/05/01 09:12:55;;;;;;;6.40;4.45;;;;;;;14.46;66.08;97036.75;5024090;28;20053;-58
2023/05/01 09:15:22;;;;;;;7.85;4.00;;;;;;;14.78;66.51;97023.69;5024229;28;20033;-56
2023/05/01 09:17:49;;;;;;;6.65;4.35;;;;;;;14.92;63.23;97031.97;5021173;28;20119;-59
2023/05/01 09:20:18;;;;;;;5.53;3.78;;;;;;;15.15;62.22;97026.81;5020135;28;20041;-58
2023/05/01 09:22:44;;;;;;;7.72;4.13;;;;;;;15.37;62.47;97031.72;5023753;28;20060;-57
2023/05/01 09:25:10;;;;;;;6.80;3.85;;;;;;;15.63;61.70;97028.69;5033530;28;20113;-59
2023/05/01 09:27:38;;;;;;;7.60;4.38;;;;;;;15.59;61.35;97035.84;5023546;28;20091;-59
2023/05/01 09:30:06;;;;;;;5.07;3.50;;;;;;;15.94;59.72;97035.63;5036678;28;20045;-59
2023/05/01 09:32:33;;;;;;;8.45;3.92;;;;;;;15.90;60.26;97031.88;5021306;28;20064;-58
2023/05/01 09:35:13;;;;;;;6.18;3.40;;;;;;;15.84;61.17;97028.38;5023313;28;20500;-60
2023/05/01 09:37:40;;;;;;;6.05;3.53;;;;;;;15.74;61.28;97029.38;5033629;28;20037;-60
2023/05/01 09:40:08;;;;;;;6.90;4.78;;;;;;;15.83;63.43;97027.59;5023098;28;20052;-59
2023/05/01 09:42:38;;;;;;;8.23;5.18;;;;;;;15.62;66.16;97031.72;5028627;28;20128;-59
2023/05/01 09:45:12;;;;;;;6.28;4.72;;;;;;;15.70;65.27;97031.06;5020298;28;20110;-58
2023/05/01 09:47:40;;;;;;;6.53;4.70;;;;;;;15.53;65.41;97029.63;5018192;28;20046;-59
2023/05/01 09:50:07;;;;;;;8.07;5.82;;;;;;;15.59;65.44;97033.91;5015502;28;20045;-59
2023/05/01 09:52:34;;;;;;;7.32;4.93;;;;;;;15.51;67.05;97033.78;5014806;28;20164;-58
2023/05/01 09:55:16;;;;;;;7.25;5.18;;;;;;;15.77;64.23;97031.50;5023269;28;20120;-59
2023/05/01 09:57:45;;;;;;;6.47;5.00;;;;;;;15.95;64.50;97034.53;5014403;28;20045;-57
2023/05/01 10:00:15;;;;;;;7.05;5.40;;;;;;;15.81;65.46;97032.53;5024446;28;20463;-57
2023/05/01 10:02:43;;;;;;;7.40;5.00;;;;;;;15.80;65.01;97041.00;5024064;28;20042;-58
2023/05/01 10:05:11;;;;;;;8.30;5.30;;;;;;;15.85;64.80;97041.75;5022202;28;20567;-58
2023/05/01 10:07:53;;;;;;;8.98;6.07;;;;;;;15.57;67.40;97041.59;5021433;28;20503;-57
2023/05/01 10:10:21;;;;;;;8.40;6.05;;;;;;;15.78;66.22;97041.31;5016278;28;20041;-58
2023/05/01 10:12:48;;;;;;;8.00;5.97;;;;;;;15.27;68.82;97035.41;5030096;28;20128;-58
2023/05/01 10:15:16;;;;;;;8.77;5.40;;;;;;;15.24;67.48;97038.72;5028543;28;20045;-58
2023/05/01 10:17:52;;;;;;;8.90;6.25;;;;;;;15.36;68.25;97030.09;5012585;28;20038;-58
2023/05/01 10:20:20;;;;;;;10.77;5.90;;;;;;;15.29;69.22;97038.66;5022678;28;20049;-58
2023/05/01 10:22:47;;;;;;;7.45;5.85;;;;;;;15.75;67.47;97039.19;5016411;28;20558;-59
2023/05/01 10:25:16;;;;;;;10.68;6.03;;;;;;;15.71;67.44;97046.31;5021456;28;20034;-57
2023/05/01 10:27:42;;;;;;;9.27;5.97;;;;;;;15.73;66.85;97038.63;5028005;28;20597;-59
2023/05/01 10:30:10;;;;;;;7.78;6.03;;;;;;;15.70;67.39;97041.97;5021564;28;20448;-60
2023/05/01 10:32:37;;;;;;;7.40;5.32;;;;;;;15.93;66.75;97039.47;5020485;28;20050;-59
2023/05/01 10:35:17;;;;;;;10.30;5.63;;;;;;;16.18;65.18;97046.50;5021271;28;20218;-58
2023/05/01 10:37:55;;;;;;;8.20;6.55;;;;;;;15.60;67.75;97042.91;5021368;28;20069;-58
2023/05/01 10:40:43;;;;;;;7.93;6.38;;;;;;;15.40;67.69;97047.53;5023614;28;20123;-58
2023/05/01 10:43:29;;;;;;;7.93;6.50;;;;;;;15.52;67.76;97038.13;5022184;28;20033;-58
2023/05/01 10:46:19;;;;;;;7.85;5.63;;;;;;;16.01;64.55;97038.00;5019505;28;20712;-60
2023/05/01 10:48:46;;;;;;;8.27;5.80;;;;;;;16.20;63.18;97044.28;5017855;28;20044;-57
2023/05/01 10:51:14;;;;;;;7.75;5.57;;;;;;;15.94;65.15;97046.56;5022769;28;20144;-59
2023/05/01 10:53:41;;;;;;;6.60;5.03;;;;;;;16.03;63.10;97039.34;5023961;28;20072;-57
2023/05/01 10:56:24;;;;;;;7.60;5.68;;;;;;;16.25;61.10;97041.47;5020982;28;20041;-56
2023/05/01 10:58:56;;;;;;;6.80;4.88;;;;;;;16.42;62.46;97047.50;5021057;28;20048;-57
2023/05/01 11:01:26;;;;;;;6.72;5.22;;;;;;;16.04;63.49;97042.91;5028408;28;20045;-59
2023/05/01 11:03:59;;;;;;;9.82;5.82;;;;;;;16.31;62.99;97046.84;5021239;28;20160;-59
2023/05/01 11:06:25;;;;;;;7.10;5.32;;;;;;;16.09;63.63;97035.44;5020068;28;20580;-59
2023/05/01 11:08:53;;;;;;;7.80;5.65;;;;;;;16.03;63.48;97042.06;5021028;28;20069;-59
2023/05/01 11:11:20;;;;;;;7.13;4.97;;;;;;;16.37;60.98;97043.72;5013722;28;20033;-57
2023/05/01 11:14:01;;;;;;;7.13;5.07;;;;;;;16.36;60.57;97033.09;5022769;28;20529;-60
2023/05/01 11:16:47;;;;;;;7.25;4.65;;;;;;;16.09;63.25;97037.34;5014493;28;20073;-59
2023/05/01 11:19:20;;;;;;;8.07;5.70;;;;;;;16.22;63.18;97028.41;5016307;28;20037;-59
2023/05/01 11:21:47;;;;;;;6.97;4.82;;;;;;;16.35;62.42;97028.75;5025645;28;20037;-59
2023/05/01 11:24:15;;;;;;;7.47;5.18;;;;;;;16.23;61.06;97034.69;5019391;28;20420;-59
2023/05/01 11:26:41;;;;;;;7.72;4.75;;;;;;;16.27;62.01;97030.25;5021760;28;20076;-60
2023/05/01 11:29:09;;;;;;;6.10;4.70;;;;;;;16.33;62.00;97030.97;5019104;28;20029;-59
2023/05/01 11:31:37;;;;;;;6.40;5.05;;;;;;;16.19;62.92;97022.72;5027545;28;20095;-59
2023/05/01 11:34:05;;;;;;;6.43;4.70;;;;;;;16.12;63.41;97031.31;5029172;28;20103;-58
2023/05/01 11:36:49;;;;;;;7.47;5.43;;;;;;;16.15;62.93;97025.25;5018522;28;20133;-59
2023/05/01 11:39:17;;;;;;;7.22;4.50;;;;;;;16.27;63.77;97015.78;5018597;28;20053;-58
2023/05/01 11:41:44;;;;;;;6.65;4.93;;;;;;;16.38;62.30;97023.53;5017191;28;20472;-59